sensor_id;sensor_type;location;lat;lon;timestamp;P1;durP1;ratioP1;P2;durP2;ratioP2
28926;SDS011;16038;47.692;9.400;2022-07-22T00:01:44;15.35;;;9.85;;
28926;SDS011;16038;47.692;9.400;2022-07-22T00:04:10;14.43;;;9.45;;
28926;SDS011;16038;47.692;9.400;2022-07-22T00:06:35;14.02;;;10.05;;
28926;SDS011;16038;47.692;9.400;2022-07-22T00:09:01;14.20;;;9.35;;
28926;SDS011;16038;47.692;9.400;2022-07-22T00:11:27;11.50;;;8.57;;
28926;SDS011;16038;47.692;9.400;2022-07-22T00:13:53;15.50;;;8.80;;
28926;SDS011;16038;47.692;9.400;2022-07-22T00:16:18;16.30;;;9.85;;
28926;SDS011;16038;47.692;9.400;2022-07-22T00:18:44;12.77;;;8.35;;
28926;SDS011;16038;47.692;9.400;2022-07-22T00:21:09;13.70;;;8.35;;
28926;SDS011;16038;47.692;9.400;2022-07-22T00:23:34;12.77;;;8.40;;
28926;SDS011;16038;47.692;9.400;2022-07-22T00:26:00;15.35;;;8.80;;
28926;SDS011;16038;47.692;9.400;2022-07-22T00:28:25;16.73;;;8.88;;
28926;SDS011;16038;47.692;9.400;2022-07-22T00:30:51;13.82;;;9.15;;
28926;SDS011;16038;47.692;9.400;2022-07-22T00:33:16;13.02;;;9.07;;
28926;SDS011;16038;47.692;9.400;2022-07-22T00:35:42;16.50;;;9.75;;
28926;SDS011;16038;47.692;9.400;2022-07-22T00:38:07;13.77;;;9.60;;
28926;SDS011;16038;47.692;9.400;2022-07-22T00:40:33;13.32;;;10.15;;
28926;SDS011;16038;47.692;9.400;2022-07-22T00:42:59;13.75;;;9.63;;
28926;SDS011;16038;47.692;9.400;2022-07-22T00:45:25;18.25;;;10.68;;
28926;SDS011;16038;47.692;9.400;2022-07-22T00:47:50;15.90;;;10.63;;
28926;SDS011;16038;47.692;9.400;2022-07-22T00:50:16;14.70;;;10.32;;
28926;SDS011;16038;47.692;9.400;2022-07-22T00:52:44;15.70;;;10.02;;
28926;SDS011;16038;47.692;9.400;2022-07-22T00:55:10;13.68;;;10.38;;
28926;SDS011;16038;47.692;9.400;2022-07-22T00:57:36;15.18;;;9.48;;
28926;SDS011;16038;47.692;9.400;2022-07-22T01:00:04;17.33;;;10.75;;
28926;SDS011;16038;47.692;9.400;2022-07-22T01:02:32;16.70;;;11.15;;
28926;SDS011;16038;47.692;9.400;2022-07-22T01:04:58;13.43;;;10.30;;
28926;SDS011;16038;47.692;9.400;2022-07-22T01:07:23;14.98;;;10.98;;
28926;SDS011;16038;47.692;9.400;2022-07-22T01:09:49;13.25;;;10.45;;
28926;SDS011;16038;47.692;9.400;2022-07-22T01:12:14;15.98;;;11.00;;
28926;SDS011;16038;47.692;9.400;2022-07-22T01:14:40;13.80;;;10.70;;
28926;SDS011;16038;47.692;9.400;2022-07-22T01:17:05;18.58;;;11.27;;
28926;SDS011;16038;47.692;9.400;2022-07-22T01:19:31;16.30;;;11.48;;
28926;SDS011;16038;47.692;9.400;2022-07-22T01:21:56;14.98;;;11.30;;
28926;SDS011;16038;47.692;9.400;2022-07-22T01:24:22;14.32;;;10.75;;
28926;SDS011;16038;47.692;9.400;2022-07-22T01:26:47;14.60;;;10.45;;
28926;SDS011;16038;47.692;9.400;2022-07-22T01:29:13;17.17;;;10.88;;
28926;SDS011;16038;47.692;9.400;2022-07-22T01:31:38;17.63;;;11.00;;
28926;SDS011;16038;47.692;9.400;2022-07-22T01:34:04;14.77;;;10.13;;
28926;SDS011;16038;47.692;9.400;2022-07-22T01:36:30;15.88;;;10.18;;
28926;SDS011;16038;47.692;9.400;2022-07-22T01:38:55;13.55;;;10.60;;
28926;SDS011;16038;47.692;9.400;2022-07-22T01:41:21;14.30;;;9.57;;
28926;SDS011;16038;47.692;9.400;2022-07-22T01:43:47;15.88;;;10.27;;
28926;SDS011;16038;47.692;9.400;2022-07-22T01:46:12;14.95;;;9.77;;
28926;SDS011;16038;47.692;9.400;2022-07-22T01:48:37;17.65;;;10.52;;
28926;SDS011;16038;47.692;9.400;2022-07-22T01:51:03;13.43;;;9.52;;
28926;SDS011;16038;47.692;9.400;2022-07-22T01:53:29;13.75;;;9.80;;
28926;SDS011;16038;47.692;9.400;2022-07-22T01:55:55;14.00;;;10.00;;
28926;SDS011;16038;47.692;9.400;2022-07-22T01:58:21;12.27;;;9.32;;
28926;SDS011;16038;47.692;9.400;2022-07-22T02:00:46;19.52;;;10.52;;
28926;SDS011;16038;47.692;9.400;2022-07-22T02:03:13;15.25;;;11.80;;
28926;SDS011;16038;47.692;9.400;2022-07-22T02:05:39;16.98;;;11.70;;
28926;SDS011;16038;47.692;9.400;2022-07-22T02:08:06;12.77;;;10.40;;
28926;SDS011;16038;47.692;9.400;2022-07-22T02:10:33;13.18;;;10.65;;
28926;SDS011;16038;47.692;9.400;2022-07-22T02:12:59;13.80;;;10.15;;
28926;SDS011;16038;47.692;9.400;2022-07-22T02:15:25;14.70;;;10.20;;
28926;SDS011;16038;47.692;9.400;2022-07-22T02:17:52;18.88;;;10.93;;
28926;SDS011;16038;47.692;9.400;2022-07-22T02:20:18;17.27;;;10.95;;
28926;SDS011;16038;47.692;9.400;2022-07-22T02:22:43;14.00;;;10.05;;
28926;SDS011;16038;47.692;9.400;2022-07-22T02:25:09;18.35;;;10.60;;
28926;SDS011;16038;47.692;9.400;2022-07-22T02:27:35;13.57;;;10.40;;
28926;SDS011;16038;47.692;9.400;2022-07-22T02:30:02;15.57;;;10.30;;
28926;SDS011;16038;47.692;9.400;2022-07-22T02:32:29;16.65;;;10.60;;
28926;SDS011;16038;47.692;9.400;2022-07-22T02:34:54;14.90;;;9.57;;
28926;SDS011;16038;47.692;9.400;2022-07-22T02:37:19;17.50;;;9.60;;
28926;SDS011;16038;47.692;9.400;2022-07-22T02:39:46;12.38;;;10.30;;
28926;SDS011;16038;47.692;9.400;2022-07-22T02:42:11;12.18;;;8.38;;
28926;SDS011;16038;47.692;9.400;2022-07-22T02:44:36;17.50;;;9.93;;
28926;SDS011;16038;47.692;9.400;2022-07-22T02:47:02;18.30;;;10.07;;
28926;SDS011;16038;47.692;9.400;2022-07-22T02:49:27;16.63;;;9.85;;
28926;SDS011;16038;47.692;9.400;2022-07-22T02:51:53;14.10;;;8.80;;
28926;SDS011;16038;47.692;9.400;2022-07-22T02:54:18;14.35;;;9.15;;
28926;SDS011;16038;47.692;9.400;2022-07-22T02:56:43;13.63;;;9.40;;
28926;SDS011;16038;47.692;9.400;2022-07-22T02:59:09;15.82;;;9.18;;
28926;SDS011;16038;47.692;9.400;2022-07-22T03:01:34;15.75;;;11.40;;
28926;SDS011;16038;47.692;9.400;2022-07-22T03:04:00;15.43;;;10.32;;
28926;SDS011;16038;47.692;9.400;2022-07-22T03:06:25;15.07;;;8.52;;
28926;SDS011;16038;47.692;9.400;2022-07-22T03:08:51;13.70;;;8.95;;
28926;SDS011;16038;47.692;9.400;2022-07-22T03:11:16;14.35;;;8.95;;
28926;SDS011;16038;47.692;9.400;2022-07-22T03:13:41;10.98;;;7.72;;
28926;SDS011;16038;47.692;9.400;2022-07-22T03:16:07;11.30;;;8.68;;
28926;SDS011;16038;47.692;9.400;2022-07-22T03:18:33;11.95;;;8.38;;
28926;SDS011;16038;47.692;9.400;2022-07-22T03:21:00;10.82;;;8.38;;
28926;SDS011;16038;47.692;9.400;2022-07-22T03:23:25;16.00;;;9.30;;
28926;SDS011;16038;47.692;9.400;2022-07-22T03:25:50;12.13;;;8.40;;
28926;SDS011;16038;47.692;9.400;2022-07-22T03:28:16;10.60;;;8.73;;
28926;SDS011;16038;47.692;9.400;2022-07-22T03:30:41;13.60;;;8.95;;
28926;SDS011;16038;47.692;9.400;2022-07-22T03:33:06;18.42;;;7.90;;
28926;SDS011;16038;47.692;9.400;2022-07-22T03:35:32;11.88;;;7.47;;
28926;SDS011;16038;47.692;9.400;2022-07-22T03:37:57;12.85;;;8.70;;
28926;SDS011;16038;47.692;9.400;2022-07-22T03:40:23;14.60;;;9.63;;
28926;SDS011;16038;47.692;9.400;2022-07-22T03:42:48;14.50;;;8.05;;
28926;SDS011;16038;47.692;9.400;2022-07-22T03:45:13;14.20;;;9.15;;
28926;SDS011;16038;47.692;9.400;2022-07-22T03:47:39;15.27;;;8.95;;
28926;SDS011;16038;47.692;9.400;2022-07-22T03:50:05;14.48;;;9.68;;
28926;SDS011;16038;47.692;9.400;2022-07-22T03:52:31;13.43;;;8.77;;
28926;SDS011;16038;47.692;9.400;2022-07-22T03:54:57;11.98;;;8.40;;
28926;SDS011;16038;47.692;9.400;2022-07-22T03:57:22;17.42;;;9.50;;
28926;SDS011;16038;47.692;9.400;2022-07-22T03:59:47;15.18;;;8.50;;
28926;SDS011;16038;47.692;9.400;2022-07-22T04:02:13;13.77;;;9.25;;
28926;SDS011;16038;47.692;9.400;2022-07-22T04:04:38;10.38;;;8.02;;
28926;SDS011;16038;47.692;9.400;2022-07-22T04:07:04;13.57;;;8.57;;
28926;SDS011;16038;47.692;9.400;2022-07-22T04:09:29;14.95;;;8.77;;
28926;SDS011;16038;47.692;9.400;2022-07-22T04:11:55;11.25;;;7.65;;
28926;SDS011;16038;47.692;9.400;2022-07-22T04:14:21;12.27;;;7.88;;
28926;SDS011;16038;47.692;9.400;2022-07-22T04:16:47;10.20;;;7.70;;
28926;SDS011;16038;47.692;9.400;2022-07-22T04:19:13;15.25;;;8.18;;
28926;SDS011;16038;47.692;9.400;2022-07-22T04:21:38;13.95;;;8.25;;
28926;SDS011;16038;47.692;9.400;2022-07-22T04:24:04;16.40;;;8.13;;
28926;SDS011;16038;47.692;9.400;2022-07-22T04:26:30;18.38;;;8.10;;
28926;SDS011;16038;47.692;9.400;2022-07-22T04:28:55;13.55;;;8.25;;
28926;SDS011;16038;47.692;9.400;2022-07-22T04:31:21;9.98;;;7.65;;
28926;SDS011;16038;47.692;9.400;2022-07-22T04:33:46;13.20;;;8.13;;
28926;SDS011;16038;47.692;9.400;2022-07-22T04:36:11;15.65;;;8.57;;
28926;SDS011;16038;47.692;9.400;2022-07-22T04:38:37;12.63;;;8.10;;
28926;SDS011;16038;47.692;9.400;2022-07-22T04:41:02;12.38;;;8.57;;
28926;SDS011;16038;47.692;9.400;2022-07-22T04:43:27;11.65;;;8.23;;
28926;SDS011;16038;47.692;9.400;2022-07-22T04:45:54;12.23;;;7.75;;
28926;SDS011;16038;47.692;9.400;2022-07-22T04:48:20;11.18;;;8.07;;
28926;SDS011;16038;47.692;9.400;2022-07-22T04:50:45;13.32;;;8.07;;
28926;SDS011;16038;47.692;9.400;2022-07-22T04:53:11;12.30;;;7.40;;
28926;SDS011;16038;47.692;9.400;2022-07-22T04:55:36;12.70;;;7.95;;
28926;SDS011;16038;47.692;9.400;2022-07-22T04:58:02;13.90;;;8.00;;
28926;SDS011;16038;47.692;9.400;2022-07-22T05:00:27;10.93;;;7.60;;
28926;SDS011;16038;47.692;9.400;2022-07-22T05:02:53;13.95;;;7.70;;
28926;SDS011;16038;47.692;9.400;2022-07-22T05:05:19;10.13;;;7.00;;
28926;SDS011;16038;47.692;9.400;2022-07-22T05:07:45;11.73;;;7.63;;
28926;SDS011;16038;47.692;9.400;2022-07-22T05:10:10;11.18;;;6.65;;
28926;SDS011;16038;47.692;9.400;2022-07-22T05:12:36;12.20;;;6.55;;
28926;SDS011;16038;47.692;9.400;2022-07-22T05:15:02;11.90;;;6.35;;
28926;SDS011;16038;47.692;9.400;2022-07-22T05:17:28;11.43;;;7.00;;
28926;SDS011;16038;47.692;9.400;2022-07-22T05:19:54;10.45;;;6.82;;
28926;SDS011;16038;47.692;9.400;2022-07-22T05:22:19;10.25;;;6.53;;
28926;SDS011;16038;47.692;9.400;2022-07-22T05:24:45;9.27;;;6.60;;
28926;SDS011;16038;47.692;9.400;2022-07-22T05:27:10;9.95;;;6.47;;
28926;SDS011;16038;47.692;9.400;2022-07-22T05:29:36;10.82;;;6.45;;
28926;SDS011;16038;47.692;9.400;2022-07-22T05:32:02;12.20;;;6.88;;
28926;SDS011;16038;47.692;9.400;2022-07-22T05:34:28;9.60;;;5.80;;
28926;SDS011;16038;47.692;9.400;2022-07-22T05:36:53;10.95;;;6.47;;
28926;SDS011;16038;47.692;9.400;2022-07-22T05:39:18;8.73;;;5.85;;
28926;SDS011;16038;47.692;9.400;2022-07-22T05:41:44;8.95;;;6.10;;
28926;SDS011;16038;47.692;9.400;2022-07-22T05:44:09;9.77;;;6.82;;
28926;SDS011;16038;47.692;9.400;2022-07-22T05:46:35;10.18;;;6.03;;
28926;SDS011;16038;47.692;9.400;2022-07-22T05:49:00;9.13;;;6.43;;
28926;SDS011;16038;47.692;9.400;2022-07-22T05:51:26;11.23;;;6.47;;
28926;SDS011;16038;47.692;9.400;2022-07-22T05:53:51;11.98;;;6.45;;
28926;SDS011;16038;47.692;9.400;2022-07-22T05:56:17;10.63;;;6.22;;
28926;SDS011;16038;47.692;9.400;2022-07-22T05:58:42;11.52;;;6.00;;
28926;SDS011;16038;47.692;9.400;2022-07-22T06:01:08;9.38;;;6.18;;
28926;SDS011;16038;47.692;9.400;2022-07-22T06:03:34;9.52;;;6.50;;
28926;SDS011;16038;47.692;9.400;2022-07-22T06:06:00;9.02;;;6.88;;
28926;SDS011;16038;47.692;9.400;2022-07-22T06:08:27;14.95;;;7.45;;
28926;SDS011;16038;47.692;9.400;2022-07-22T06:10:54;13.07;;;6.88;;
28926;SDS011;16038;47.692;9.400;2022-07-22T06:13:19;9.52;;;7.22;;
28926;SDS011;16038;47.692;9.400;2022-07-22T06:15:45;10.43;;;6.47;;
28926;SDS011;16038;47.692;9.400;2022-07-22T06:18:10;12.05;;;6.85;;
28926;SDS011;16038;47.692;9.400;2022-07-22T06:20:36;12.10;;;6.68;;
28926;SDS011;16038;47.692;9.400;2022-07-22T06:23:02;9.38;;;7.13;;
28926;SDS011;16038;47.692;9.400;2022-07-22T06:25:27;9.10;;;6.88;;
28926;SDS011;16038;47.692;9.400;2022-07-22T06:27:53;10.25;;;7.65;;
28926;SDS011;16038;47.692;9.400;2022-07-22T06:30:18;12.07;;;7.20;;
28926;SDS011;16038;47.692;9.400;2022-07-22T06:32:44;9.50;;;6.40;;
28926;SDS011;16038;47.692;9.400;2022-07-22T06:35:09;9.50;;;6.75;;
28926;SDS011;16038;47.692;9.400;2022-07-22T06:37:35;9.73;;;6.40;;
28926;SDS011;16038;47.692;9.400;2022-07-22T06:40:01;11.00;;;7.40;;
28926;SDS011;16038;47.692;9.400;2022-07-22T06:42:33;9.70;;;6.55;;
28926;SDS011;16038;47.692;9.400;2022-07-22T06:44:58;8.48;;;6.80;;
28926;SDS011;16038;47.692;9.400;2022-07-22T06:47:24;12.00;;;6.88;;
28926;SDS011;16038;47.692;9.400;2022-07-22T06:49:49;10.02;;;6.82;;
28926;SDS011;16038;47.692;9.400;2022-07-22T06:52:14;12.57;;;6.97;;
28926;SDS011;16038;47.692;9.400;2022-07-22T06:54:40;11.63;;;6.85;;
28926;SDS011;16038;47.692;9.400;2022-07-22T06:57:05;10.20;;;7.38;;
28926;SDS011;16038;47.692;9.400;2022-07-22T06:59:31;10.32;;;7.50;;
28926;SDS011;16038;47.692;9.400;2022-07-22T07:01:56;10.00;;;6.93;;
28926;SDS011;16038;47.692;9.400;2022-07-22T07:04:21;8.88;;;6.25;;
28926;SDS011;16038;47.692;9.400;2022-07-22T07:06:47;9.75;;;6.93;;
28926;SDS011;16038;47.692;9.400;2022-07-22T07:09:13;10.80;;;6.70;;
28926;SDS011;16038;47.692;9.400;2022-07-22T07:11:38;10.48;;;7.53;;
28926;SDS011;16038;47.692;9.400;2022-07-22T07:14:04;10.07;;;6.95;;
28926;SDS011;16038;47.692;9.400;2022-07-22T07:16:29;10.55;;;6.63;;
28926;SDS011;16038;47.692;9.400;2022-07-22T07:18:55;10.80;;;7.80;;
28926;SDS011;16038;47.692;9.400;2022-07-22T07:21:21;9.93;;;6.72;;
28926;SDS011;16038;47.692;9.400;2022-07-22T07:23:46;12.45;;;7.13;;
28926;SDS011;16038;47.692;9.400;2022-07-22T07:26:11;10.70;;;6.97;;
28926;SDS011;16038;47.692;9.400;2022-07-22T07:28:38;9.25;;;7.75;;
28926;SDS011;16038;47.692;9.400;2022-07-22T07:31:04;11.25;;;7.35;;
28926;SDS011;16038;47.692;9.400;2022-07-22T07:33:29;11.25;;;6.75;;
28926;SDS011;16038;47.692;9.400;2022-07-22T07:35:58;9.90;;;7.57;;
28926;SDS011;16038;47.692;9.400;2022-07-22T07:38:24;11.32;;;6.13;;
28926;SDS011;16038;47.692;9.400;2022-07-22T07:40:50;8.30;;;6.25;;
28926;SDS011;16038;47.692;9.400;2022-07-22T07:43:15;10.40;;;6.38;;
28926;SDS011;16038;47.692;9.400;2022-07-22T07:45:40;8.73;;;6.53;;
28926;SDS011;16038;47.692;9.400;2022-07-22T07:48:06;10.02;;;7.20;;
28926;SDS011;16038;47.692;9.400;2022-07-22T07:50:31;10.75;;;7.43;;
28926;SDS011;16038;47.692;9.400;2022-07-22T07:52:57;11.35;;;7.45;;
28926;SDS011;16038;47.692;9.400;2022-07-22T07:55:23;13.10;;;7.30;;
28926;SDS011;16038;47.692;9.400;2022-07-22T07:57:49;10.95;;;7.40;;
28926;SDS011;16038;47.692;9.400;2022-07-22T08:00:15;8.32;;;6.43;;
28926;SDS011;16038;47.692;9.400;2022-07-22T08:02:42;10.48;;;7.50;;
28926;SDS011;16038;47.692;9.400;2022-07-22T08:05:09;7.88;;;5.82;;
28926;SDS011;16038;47.692;9.400;2022-07-22T08:07:35;9.90;;;7.03;;
28926;SDS011;16038;47.692;9.400;2022-07-22T08:10:02;8.90;;;6.45;;
28926;SDS011;16038;47.692;9.400;2022-07-22T08:12:31;11.63;;;7.25;;
28926;SDS011;16038;47.692;9.400;2022-07-22T08:14:57;11.35;;;7.15;;
28926;SDS011;16038;47.692;9.400;2022-07-22T08:17:23;14.43;;;7.43;;
28926;SDS011;16038;47.692;9.400;2022-07-22T08:19:48;11.10;;;7.18;;
28926;SDS011;16038;47.692;9.400;2022-07-22T08:22:13;11.00;;;6.85;;
28926;SDS011;16038;47.692;9.400;2022-07-22T08:24:39;11.43;;;6.68;;
28926;SDS011;16038;47.692;9.400;2022-07-22T08:27:04;8.55;;;6.90;;
28926;SDS011;16038;47.692;9.400;2022-07-22T08:29:30;9.30;;;7.43;;
28926;SDS011;16038;47.692;9.400;2022-07-22T08:31:55;10.82;;;7.03;;
28926;SDS011;16038;47.692;9.400;2022-07-22T08:34:21;9.40;;;7.03;;
28926;SDS011;16038;47.692;9.400;2022-07-22T08:36:46;10.82;;;6.90;;
28926;SDS011;16038;47.692;9.400;2022-07-22T08:39:12;10.80;;;6.90;;
28926;SDS011;16038;47.692;9.400;2022-07-22T08:41:38;13.13;;;7.68;;
28926;SDS011;16038;47.692;9.400;2022-07-22T08:44:04;8.15;;;7.22;;
28926;SDS011;16038;47.692;9.400;2022-07-22T08:46:31;12.18;;;7.75;;
28926;SDS011;16038;47.692;9.400;2022-07-22T08:48:57;9.52;;;6.85;;
28926;SDS011;16038;47.692;9.400;2022-07-22T08:51:25;13.73;;;8.10;;
28926;SDS011;16038;47.692;9.400;2022-07-22T08:53:51;10.40;;;8.20;;
28926;SDS011;16038;47.692;9.400;2022-07-22T08:56:16;10.90;;;6.97;;
28926;SDS011;16038;47.692;9.400;2022-07-22T08:58:42;13.23;;;8.73;;
28926;SDS011;16038;47.692;9.400;2022-07-22T09:01:12;9.38;;;6.90;;
28926;SDS011;16038;47.692;9.400;2022-07-22T09:03:48;11.40;;;6.70;;
28926;SDS011;16038;47.692;9.400;2022-07-22T09:06:16;9.32;;;7.10;;
28926;SDS011;16038;47.692;9.400;2022-07-22T09:09:01;9.77;;;7.43;;
28926;SDS011;16038;47.692;9.400;2022-07-22T09:11:29;10.25;;;7.97;;
28926;SDS011;16038;47.692;9.400;2022-07-22T09:13:56;11.07;;;7.25;;
28926;SDS011;16038;47.692;9.400;2022-07-22T09:16:40;11.02;;;7.28;;
28926;SDS011;16038;47.692;9.400;2022-07-22T09:19:10;9.48;;;6.70;;
28926;SDS011;16038;47.692;9.400;2022-07-22T09:21:38;9.75;;;6.75;;
28926;SDS011;16038;47.692;9.400;2022-07-22T09:24:05;17.33;;;10.00;;
28926;SDS011;16038;47.692;9.400;2022-07-22T09:26:32;13.48;;;9.82;;
28926;SDS011;16038;47.692;9.400;2022-07-22T09:29:02;11.13;;;8.88;;
28926;SDS011;16038;47.692;9.400;2022-07-22T09:31:33;9.85;;;7.88;;
28926;SDS011;16038;47.692;9.400;2022-07-22T09:34:00;12.90;;;8.25;;
28926;SDS011;16038;47.692;9.400;2022-07-22T09:36:26;15.55;;;9.15;;
28926;SDS011;16038;47.692;9.400;2022-07-22T09:38:52;9.77;;;6.95;;
28926;SDS011;16038;47.692;9.400;2022-07-22T09:41:18;11.23;;;8.73;;
28926;SDS011;16038;47.692;9.400;2022-07-22T09:43:44;10.68;;;7.47;;
28926;SDS011;16038;47.692;9.400;2022-07-22T09:46:10;8.95;;;6.68;;
28926;SDS011;16038;47.692;9.400;2022-07-22T09:48:36;10.55;;;6.97;;
28926;SDS011;16038;47.692;9.400;2022-07-22T09:51:03;8.73;;;7.47;;
28926;SDS011;16038;47.692;9.400;2022-07-22T09:53:29;8.70;;;6.82;;
28926;SDS011;16038;47.692;9.400;2022-07-22T09:55:56;13.43;;;7.30;;
28926;SDS011;16038;47.692;9.400;2022-07-22T09:58:22;9.75;;;7.00;;
28926;SDS011;16038;47.692;9.400;2022-07-22T10:00:48;10.63;;;6.43;;
28926;SDS011;16038;47.692;9.400;2022-07-22T10:03:21;7.68;;;5.88;;
28926;SDS011;16038;47.692;9.400;2022-07-22T10:05:50;9.50;;;6.00;;
28926;SDS011;16038;47.692;9.400;2022-07-22T10:08:16;7.57;;;5.30;;
28926;SDS011;16038;47.692;9.400;2022-07-22T10:10:42;8.68;;;5.80;;
28926;SDS011;16038;47.692;9.400;2022-07-22T10:13:07;8.73;;;5.70;;
28926;SDS011;16038;47.692;9.400;2022-07-22T10:15:34;8.02;;;5.53;;
28926;SDS011;16038;47.692;9.400;2022-07-22T10:18:01;7.93;;;4.78;;
28926;SDS011;16038;47.692;9.400;2022-07-22T10:20:30;8.02;;;5.45;;
28926;SDS011;16038;47.692;9.400;2022-07-22T10:22:58;8.90;;;5.35;;
28926;SDS011;16038;47.692;9.400;2022-07-22T10:25:26;5.93;;;4.50;;
28926;SDS011;16038;47.692;9.400;2022-07-22T10:28:00;7.60;;;5.07;;
28926;SDS011;16038;47.692;9.400;2022-07-22T10:30:32;8.65;;;5.50;;
28926;SDS011;16038;47.692;9.400;2022-07-22T10:35:35;9.45;;;5.53;;
28926;SDS011;16038;47.692;9.400;2022-07-22T10:38:03;7.95;;;5.32;;
28926;SDS011;16038;47.692;9.400;2022-07-22T10:40:31;7.25;;;5.53;;
28926;SDS011;16038;47.692;9.400;2022-07-22T10:43:11;11.85;;;5.68;;
28926;SDS011;16038;47.692;9.400;2022-07-22T10:48:07;8.13;;;5.53;;
28926;SDS011;16038;47.692;9.400;2022-07-22T10:53:00;7.85;;;4.72;;
28926;SDS011;16038;47.692;9.400;2022-07-22T10:55:27;7.75;;;5.30;;
28926;SDS011;16038;47.692;9.400;2022-07-22T10:57:53;7.13;;;4.93;;
28926;SDS011;16038;47.692;9.400;2022-07-22T11:00:18;5.70;;;4.68;;
28926;SDS011;16038;47.692;9.400;2022-07-22T11:02:44;6.03;;;4.65;;
28926;SDS011;16038;47.692;9.400;2022-07-22T11:05:10;8.20;;;5.20;;
28926;SDS011;16038;47.692;9.400;2022-07-22T11:07:45;5.60;;;4.13;;
28926;SDS011;16038;47.692;9.400;2022-07-22T11:10:13;8.20;;;4.85;;
28926;SDS011;16038;47.692;9.400;2022-07-22T11:12:41;10.70;;;4.88;;
28926;SDS011;16038;47.692;9.400;2022-07-22T11:15:06;6.40;;;4.72;;
28926;SDS011;16038;47.692;9.400;2022-07-22T11:17:33;6.47;;;5.07;;
28926;SDS011;16038;47.692;9.400;2022-07-22T11:20:03;5.88;;;4.70;;
28926;SDS011;16038;47.692;9.400;2022-07-22T11:22:33;6.30;;;5.10;;
28926;SDS011;16038;47.692;9.400;2022-07-22T11:25:00;10.75;;;5.63;;
28926;SDS011;16038;47.692;9.400;2022-07-22T11:27:31;9.15;;;5.95;;
28926;SDS011;16038;47.692;9.400;2022-07-22T11:29:57;7.43;;;5.40;;
28926;SDS011;16038;47.692;9.400;2022-07-22T11:32:24;9.23;;;5.47;;
28926;SDS011;16038;47.692;9.400;2022-07-22T11:34:50;7.28;;;5.45;;
28926;SDS011;16038;47.692;9.400;2022-07-22T11:37:17;11.50;;;5.10;;
28926;SDS011;16038;47.692;9.400;2022-07-22T11:39:45;8.52;;;4.78;;
28926;SDS011;16038;47.692;9.400;2022-07-22T11:42:15;6.28;;;4.90;;
28926;SDS011;16038;47.692;9.400;2022-07-22T11:44:41;8.88;;;4.65;;
28926;SDS011;16038;47.692;9.400;2022-07-22T11:47:07;9.45;;;4.65;;
28926;SDS011;16038;47.692;9.400;2022-07-22T11:49:35;8.38;;;4.50;;
28926;SDS011;16038;47.692;9.400;2022-07-22T11:52:04;9.38;;;5.15;;
28926;SDS011;16038;47.692;9.400;2022-07-22T11:57:16;7.63;;;4.55;;
28926;SDS011;16038;47.692;9.400;2022-07-22T11:59:41;8.18;;;4.75;;
28926;SDS011;16038;47.692;9.400;2022-07-22T12:02:07;9.73;;;6.28;;
28926;SDS011;16038;47.692;9.400;2022-07-22T12:04:34;17.15;;;6.05;;
28926;SDS011;16038;47.692;9.400;2022-07-22T12:07:01;8.40;;;5.55;;
28926;SDS011;16038;47.692;9.400;2022-07-22T12:09:34;11.32;;;6.57;;
28926;SDS011;16038;47.692;9.400;2022-07-22T12:12:02;11.23;;;6.30;;
28926;SDS011;16038;47.692;9.400;2022-07-22T12:14:30;9.48;;;6.65;;
28926;SDS011;16038;47.692;9.400;2022-07-22T12:17:07;8.20;;;6.20;;
28926;SDS011;16038;47.692;9.400;2022-07-22T12:19:38;9.90;;;5.63;;
28926;SDS011;16038;47.692;9.400;2022-07-22T12:22:06;7.75;;;5.78;;
28926;SDS011;16038;47.692;9.400;2022-07-22T12:27:11;11.40;;;6.50;;
28926;SDS011;16038;47.692;9.400;2022-07-22T12:29:47;9.07;;;6.07;;
28926;SDS011;16038;47.692;9.400;2022-07-22T12:34:44;8.07;;;5.97;;
28926;SDS011;16038;47.692;9.400;2022-07-22T12:37:13;7.40;;;5.88;;
28926;SDS011;16038;47.692;9.400;2022-07-22T12:39:58;7.82;;;5.75;;
28926;SDS011;16038;47.692;9.400;2022-07-22T12:42:35;9.10;;;5.90;;
28926;SDS011;16038;47.692;9.400;2022-07-22T12:45:06;9.87;;;6.43;;
28926;SDS011;16038;47.692;9.400;2022-07-22T12:47:37;10.10;;;5.82;;
28926;SDS011;16038;47.692;9.400;2022-07-22T12:52:55;7.70;;;6.13;;
28926;SDS011;16038;47.692;9.400;2022-07-22T12:55:28;10.32;;;5.30;;
28926;SDS011;16038;47.692;9.400;2022-07-22T12:57:54;11.82;;;5.72;;
28926;SDS011;16038;47.692;9.400;2022-07-22T13:00:21;7.60;;;5.70;;
28926;SDS011;16038;47.692;9.400;2022-07-22T13:02:49;8.43;;;5.47;;
28926;SDS011;16038;47.692;9.400;2022-07-22T13:05:15;8.02;;;6.10;;
28926;SDS011;16038;47.692;9.400;2022-07-22T13:07:41;17.17;;;5.63;;
28926;SDS011;16038;47.692;9.400;2022-07-22T13:10:07;8.55;;;5.32;;
28926;SDS011;16038;47.692;9.400;2022-07-22T13:12:34;7.28;;;5.53;;
28926;SDS011;16038;47.692;9.400;2022-07-22T13:14:59;6.68;;;5.18;;
28926;SDS011;16038;47.692;9.400;2022-07-22T13:17:25;9.93;;;6.10;;
28926;SDS011;16038;47.692;9.400;2022-07-22T13:19:51;11.88;;;5.88;;
28926;SDS011;16038;47.692;9.400;2022-07-22T13:22:16;7.72;;;5.97;;
28926;SDS011;16038;47.692;9.400;2022-07-22T13:24:42;7.80;;;5.88;;
28926;SDS011;16038;47.692;9.400;2022-07-22T13:27:07;8.20;;;5.78;;
28926;SDS011;16038;47.692;9.400;2022-07-22T13:29:33;8.18;;;5.80;;
28926;SDS011;16038;47.692;9.400;2022-07-22T13:31:58;8.38;;;6.07;;
28926;SDS011;16038;47.692;9.400;2022-07-22T13:34:24;10.55;;;5.85;;
28926;SDS011;16038;47.692;9.400;2022-07-22T13:36:49;6.65;;;5.25;;
28926;SDS011;16038;47.692;9.400;2022-07-22T13:39:15;10.90;;;6.80;;
28926;SDS011;16038;47.692;9.400;2022-07-22T13:41:41;9.73;;;5.90;;
28926;SDS011;16038;47.692;9.400;2022-07-22T13:44:07;7.20;;;5.68;;
28926;SDS011;16038;47.692;9.400;2022-07-22T13:46:35;11.73;;;6.43;;
28926;SDS011;16038;47.692;9.400;2022-07-22T13:49:01;8.40;;;5.13;;
28926;SDS011;16038;47.692;9.400;2022-07-22T13:51:27;7.55;;;5.93;;
28926;SDS011;16038;47.692;9.400;2022-07-22T13:53:52;7.72;;;5.47;;
28926;SDS011;16038;47.692;9.400;2022-07-22T13:56:18;11.43;;;5.88;;
28926;SDS011;16038;47.692;9.400;2022-07-22T13:58:43;8.77;;;5.53;;
28926;SDS011;16038;47.692;9.400;2022-07-22T14:01:09;7.47;;;5.82;;
28926;SDS011;16038;47.692;9.400;2022-07-22T14:03:36;6.65;;;5.60;;
28926;SDS011;16038;47.692;9.400;2022-07-22T14:06:02;10.73;;;5.93;;
28926;SDS011;16038;47.692;9.400;2022-07-22T14:08:28;8.38;;;6.07;;
28926;SDS011;16038;47.692;9.400;2022-07-22T14:10:54;15.68;;;5.55;;
28926;SDS011;16038;47.692;9.400;2022-07-22T14:13:19;9.13;;;5.53;;
28926;SDS011;16038;47.692;9.400;2022-07-22T14:15:45;7.97;;;5.75;;
28926;SDS011;16038;47.692;9.400;2022-07-22T14:18:10;9.02;;;5.30;;
28926;SDS011;16038;47.692;9.400;2022-07-22T14:20:35;10.27;;;5.90;;
28926;SDS011;16038;47.692;9.400;2022-07-22T14:23:01;8.98;;;5.30;;
28926;SDS011;16038;47.692;9.400;2022-07-22T14:25:28;7.20;;;4.93;;
28926;SDS011;16038;47.692;9.400;2022-07-22T14:27:54;7.00;;;5.68;;
28926;SDS011;16038;47.692;9.400;2022-07-22T14:30:19;10.48;;;6.13;;
28926;SDS011;16038;47.692;9.400;2022-07-22T14:32:44;7.53;;;4.85;;
28926;SDS011;16038;47.692;9.400;2022-07-22T14:35:10;6.10;;;5.47;;
28926;SDS011;16038;47.692;9.400;2022-07-22T14:37:35;6.28;;;4.78;;
28926;SDS011;16038;47.692;9.400;2022-07-22T14:40:01;7.55;;;5.00;;
28926;SDS011;16038;47.692;9.400;2022-07-22T14:42:26;8.13;;;4.97;;
28926;SDS011;16038;47.692;9.400;2022-07-22T14:44:52;7.57;;;4.68;;
28926;SDS011;16038;47.692;9.400;2022-07-22T14:47:17;6.00;;;4.57;;
28926;SDS011;16038;47.692;9.400;2022-07-22T14:49:42;7.32;;;5.07;;
28926;SDS011;16038;47.692;9.400;2022-07-22T14:52:08;8.63;;;5.00;;